Airfield :
LOGIN :

Register | Disclaimer

   EN    FR    IT 

 










Legend :    VFR   Marginal VFR   IFR   Intensive IFR   Very Intensive IFR
Visi :
Ceiling :
>= 8 km
>= 3000ft
5 to 8 km
1000 to 3000 ft
1500m to 5 km
500 to 1000 ft
800 to 1500m
200 to 500 ft
< 800m
< 200 ft
Symbols :   Thunderstorms  Fog  Heavy snow  Heavy precipitations  Wind > 20 kt
SIGMETs :     Misc.  Thunderstorms  Icing  Turbulence  Mountain Waves  Volcanic Ashes






- Airport Elevation : 102 ft
- IATA code : KEL


EDHK - Holtenau

CURRENT METAR :
  • 091950Z AUTO 27002KT 9999 // BKN062/// BKN110/// BKN230/// 12/10 Q1011

EXPIRED METARs :
  • 091920Z AUTO 29002KT 9999 // SCT065/// BKN230/// 12/10 Q1011
  • 091850Z AUTO 34003KT 9999 // BKN063/// BKN190/// 13/09 Q1011
  • 091820Z AUTO 05003KT 030V110 9999 // BKN068/// BKN210/// 13/10 Q1011
  • 091750Z AUTO /////KT ///V/// 9999 // OVC067/// 14/09 Q1011
  • 091720Z AUTO 03005KT 9999 // BKN065/// OVC074/// 14/09 Q1011

Expired Forecast.



MET'MAP, your aeronautical weather chart ! - Copyright ORBIFLY December 2007 - Disclaimer

ORBIFLY MET'MAP TEAM :

Programming & Development : Alexandra Zaïnal
Concept & original design : Baudouin d'Aumeries
Assistance for programming : Marc-Olivier Méhu
Technical & hardware support : Manuel Goepfert

Contact : metmap@orbifly.com




SOURCES & CREDITS :

   NOAA